NR99 weather

Corolla Fire Station Heliport
Corolla, North Carolina, United States

Public forecast

Using degrees Fahrenheit for public forecast. Weather courtesy of forecast.io.

METAR (pilot weather report)

Closest report is Currituck County Regional Airport, 10.6 nm (19.6 km) WNW. Retrieved 2019/04/22 17:40 UTC (18 minutes ago):

KONX 221740Z AUTO 10SM BKN050 20/11 A3010 RMK AO2 T02010107

TAF (pilot weather forecast)

Closest forecast is Elizabeth City Regional Airport & Coast Guard Air Station, 18.0 nm (33.3 km) WSW. Retrieved 2019/04/22 12:27 UTC (6 hours ago):

TAF KECG 221120Z 2212/2312 28006KT P6SM OVC090 FM221500 32010KT P6SM SCT080 FM230000 VRB04KT P6SM SKC